Mentor, Kansas
Current Conditions -  °F | °C
As of 11:53 AM on Sunday 25 Jan 2015 (Local Time) from KSLN Reporting Station
Overcast Overcast  
Wind Chill: 37°   Ceiling: 3300
Heat Index: 45°   Visibility: 10mi
Dew Point: 31°   Wind: 22mph
Humidity: 58%   Direction: 330°NNW
Pressure: 30.01"   Gusts: 35mph
Location:  38.6728°N, 97.576°W
Report Text: KSLN 251753Z 33019G30KT 10SM OVC033 07/M01 A3001 RMK AO2 PK WND 32034/1729 SLP163 T00721006 10078 20072 51029
Loading
Personal Weather Stations






























Interactive Weather Map New forecast layout! Learn more

10-Day Weather Forecast

Advertisements
Track Severe Weather on mobile